sensor_id;sensor_type;location;lat;lon;timestamp;P1;durP1;ratioP1;P2;durP2;ratioP2
40717;SDS011;26405;51.850;-2.246;2023-02-28T00:02:16;4.80;;;2.42;;
40717;SDS011;26405;51.850;-2.246;2023-02-28T00:04:44;8.90;;;2.70;;
40717;SDS011;26405;51.850;-2.246;2023-02-28T00:07:09;9.55;;;2.55;;
40717;SDS011;26405;51.850;-2.246;2023-02-28T00:09:35;8.30;;;2.90;;
40717;SDS011;26405;51.850;-2.246;2023-02-28T00:12:00;8.75;;;3.08;;
40717;SDS011;26405;51.850;-2.246;2023-02-28T00:14:29;8.18;;;3.00;;
40717;SDS011;26405;51.850;-2.246;2023-02-28T00:16:55;6.57;;;2.65;;
40717;SDS011;26405;51.850;-2.246;2023-02-28T00:19:20;6.82;;;2.70;;
40717;SDS011;26405;51.850;-2.246;2023-02-28T00:21:45;9.23;;;3.10;;
40717;SDS011;26405;51.850;-2.246;2023-02-28T00:24:10;10.65;;;3.05;;
40717;SDS011;26405;51.850;-2.246;2023-02-28T00:26:35;6.88;;;2.70;;
40717;SDS011;26405;51.850;-2.246;2023-02-28T00:29:01;7.05;;;2.83;;
40717;SDS011;26405;51.850;-2.246;2023-02-28T00:31:26;6.40;;;2.55;;
40717;SDS011;26405;51.850;-2.246;2023-02-28T00:33:51;7.82;;;2.50;;
40717;SDS011;26405;51.850;-2.246;2023-02-28T00:36:17;6.90;;;2.50;;
40717;SDS011;26405;51.850;-2.246;2023-02-28T00:38:42;9.32;;;3.05;;
40717;SDS011;26405;51.850;-2.246;2023-02-28T00:41:07;8.27;;;2.83;;
40717;SDS011;26405;51.850;-2.246;2023-02-28T00:43:33;7.60;;;2.83;;
40717;SDS011;26405;51.850;-2.246;2023-02-28T00:45:59;7.80;;;3.00;;
40717;SDS011;26405;51.850;-2.246;2023-02-28T00:48:24;9.45;;;3.28;;
40717;SDS011;26405;51.850;-2.246;2023-02-28T00:50:50;8.88;;;3.17;;
40717;SDS011;26405;51.850;-2.246;2023-02-28T00:53:15;9.18;;;3.47;;
40717;SDS011;26405;51.850;-2.246;2023-02-28T00:55:40;7.32;;;3.08;;
40717;SDS011;26405;51.850;-2.246;2023-02-28T00:58:05;10.02;;;2.88;;
40717;SDS011;26405;51.850;-2.246;2023-02-28T01:00:31;11.68;;;3.38;;
40717;SDS011;26405;51.850;-2.246;2023-02-28T01:02:56;7.10;;;3.03;;
40717;SDS011;26405;51.850;-2.246;2023-02-28T01:05:21;12.18;;;3.40;;
40717;SDS011;26405;51.850;-2.246;2023-02-28T01:07:47;9.35;;;3.38;;
40717;SDS011;26405;51.850;-2.246;2023-02-28T01:10:12;9.98;;;3.70;;
40717;SDS011;26405;51.850;-2.246;2023-02-28T01:12:37;10.65;;;3.78;;
40717;SDS011;26405;51.850;-2.246;2023-02-28T01:15:03;11.18;;;3.63;;
40717;SDS011;26405;51.850;-2.246;2023-02-28T01:17:28;10.45;;;3.25;;
40717;SDS011;26405;51.850;-2.246;2023-02-28T01:19:54;9.02;;;3.55;;
40717;SDS011;26405;51.850;-2.246;2023-02-28T01:22:20;7.22;;;3.00;;
40717;SDS011;26405;51.850;-2.246;2023-02-28T01:24:45;9.57;;;3.50;;
40717;SDS011;26405;51.850;-2.246;2023-02-28T01:27:10;10.43;;;3.72;;
40717;SDS011;26405;51.850;-2.246;2023-02-28T01:29:36;6.32;;;3.20;;
40717;SDS011;26405;51.850;-2.246;2023-02-28T01:32:01;10.68;;;3.80;;
40717;SDS011;26405;51.850;-2.246;2023-02-28T01:34:26;8.55;;;3.50;;
40717;SDS011;26405;51.850;-2.246;2023-02-28T01:36:51;7.68;;;3.03;;
40717;SDS011;26405;51.850;-2.246;2023-02-28T01:39:17;8.45;;;3.10;;
40717;SDS011;26405;51.850;-2.246;2023-02-28T01:41:42;6.15;;;2.90;;
40717;SDS011;26405;51.850;-2.246;2023-02-28T01:46:52;6.85;;;3.22;;
40717;SDS011;26405;51.850;-2.246;2023-02-28T01:49:17;6.63;;;2.83;;
40717;SDS011;26405;51.850;-2.246;2023-02-28T01:54:11;5.03;;;2.88;;
40717;SDS011;26405;51.850;-2.246;2023-02-28T01:56:38;5.18;;;2.70;;
40717;SDS011;26405;51.850;-2.246;2023-02-28T01:59:05;5.05;;;2.53;;
40717;SDS011;26405;51.850;-2.246;2023-02-28T02:01:33;4.10;;;2.50;;
40717;SDS011;26405;51.850;-2.246;2023-02-28T02:04:00;5.03;;;3.03;;
40717;SDS011;26405;51.850;-2.246;2023-02-28T02:06:30;9.35;;;3.30;;
40717;SDS011;26405;51.850;-2.246;2023-02-28T02:08:56;5.38;;;2.80;;
40717;SDS011;26405;51.850;-2.246;2023-02-28T02:11:21;6.40;;;2.97;;
40717;SDS011;26405;51.850;-2.246;2023-02-28T02:13:57;6.77;;;3.00;;
40717;SDS011;26405;51.850;-2.246;2023-02-28T02:19:11;5.63;;;2.80;;
40717;SDS011;26405;51.850;-2.246;2023-02-28T02:34:29;5.60;;;2.85;;
40717;SDS011;26405;51.850;-2.246;2023-02-28T02:42:29;7.53;;;3.33;;
40717;SDS011;26405;51.850;-2.246;2023-02-28T02:45:19;5.85;;;2.83;;
40717;SDS011;26405;51.850;-2.246;2023-02-28T02:47:42;5.65;;;3.10;;
40717;SDS011;26405;51.850;-2.246;2023-02-28T02:50:10;7.00;;;3.08;;
40717;SDS011;26405;51.850;-2.246;2023-02-28T02:52:38;8.52;;;3.40;;
40717;SDS011;26405;51.850;-2.246;2023-02-28T02:55:05;6.28;;;3.10;;
40717;SDS011;26405;51.850;-2.246;2023-02-28T02:57:36;5.53;;;3.17;;
40717;SDS011;26405;51.850;-2.246;2023-02-28T03:00:04;7.78;;;3.08;;
40717;SDS011;26405;51.850;-2.246;2023-02-28T03:02:32;6.13;;;3.33;;
40717;SDS011;26405;51.850;-2.246;2023-02-28T03:05:00;7.13;;;3.27;;
40717;SDS011;26405;51.850;-2.246;2023-02-28T03:07:26;6.07;;;3.00;;
40717;SDS011;26405;51.850;-2.246;2023-02-28T03:09:52;6.88;;;3.20;;
40717;SDS011;26405;51.850;-2.246;2023-02-28T03:12:18;8.07;;;3.30;;
40717;SDS011;26405;51.850;-2.246;2023-02-28T03:15:02;6.50;;;3.17;;
40717;SDS011;26405;51.850;-2.246;2023-02-28T03:25:27;6.78;;;3.33;;
40717;SDS011;26405;51.850;-2.246;2023-02-28T03:30:24;7.70;;;3.20;;
40717;SDS011;26405;51.850;-2.246;2023-02-28T03:32:55;8.18;;;3.22;;
40717;SDS011;26405;51.850;-2.246;2023-02-28T03:35:32;6.43;;;3.35;;
40717;SDS011;26405;51.850;-2.246;2023-02-28T03:38:07;8.18;;;3.20;;
40717;SDS011;26405;51.850;-2.246;2023-02-28T03:40:34;5.88;;;3.30;;
40717;SDS011;26405;51.850;-2.246;2023-02-28T03:43:03;9.60;;;3.60;;
40717;SDS011;26405;51.850;-2.246;2023-02-28T03:45:29;7.38;;;3.58;;
40717;SDS011;26405;51.850;-2.246;2023-02-28T03:50:29;4.72;;;3.10;;
40717;SDS011;26405;51.850;-2.246;2023-02-28T03:53:00;7.38;;;3.50;;
40717;SDS011;26405;51.850;-2.246;2023-02-28T03:55:26;6.65;;;3.50;;
40717;SDS011;26405;51.850;-2.246;2023-02-28T03:58:38;8.73;;;3.53;;
40717;SDS011;26405;51.850;-2.246;2023-02-28T04:00:46;6.15;;;3.30;;
40717;SDS011;26405;51.850;-2.246;2023-02-28T04:03:13;6.53;;;3.20;;
40717;SDS011;26405;51.850;-2.246;2023-02-28T04:05:46;8.25;;;3.40;;
40717;SDS011;26405;51.850;-2.246;2023-02-28T04:08:14;7.95;;;3.50;;
40717;SDS011;26405;51.850;-2.246;2023-02-28T04:10:39;6.20;;;3.55;;
40717;SDS011;26405;51.850;-2.246;2023-02-28T04:13:05;6.97;;;3.42;;
40717;SDS011;26405;51.850;-2.246;2023-02-28T04:15:30;5.45;;;3.15;;
40717;SDS011;26405;51.850;-2.246;2023-02-28T04:17:56;6.53;;;3.35;;
40717;SDS011;26405;51.850;-2.246;2023-02-28T04:20:22;10.80;;;3.70;;
40717;SDS011;26405;51.850;-2.246;2023-02-28T04:22:47;7.18;;;3.17;;
40717;SDS011;26405;51.850;-2.246;2023-02-28T04:25:12;7.03;;;3.50;;
40717;SDS011;26405;51.850;-2.246;2023-02-28T04:27:37;3.67;;;3.00;;
40717;SDS011;26405;51.850;-2.246;2023-02-28T04:30:03;7.15;;;3.53;;
40717;SDS011;26405;51.850;-2.246;2023-02-28T04:32:28;6.13;;;3.25;;
40717;SDS011;26405;51.850;-2.246;2023-02-28T04:34:53;5.00;;;3.20;;
40717;SDS011;26405;51.850;-2.246;2023-02-28T04:37:19;7.10;;;3.50;;
40717;SDS011;26405;51.850;-2.246;2023-02-28T04:39:44;6.40;;;3.33;;
40717;SDS011;26405;51.850;-2.246;2023-02-28T04:42:09;8.75;;;3.47;;
40717;SDS011;26405;51.850;-2.246;2023-02-28T04:44:35;7.72;;;3.63;;
40717;SDS011;26405;51.850;-2.246;2023-02-28T04:47:00;7.03;;;3.65;;
40717;SDS011;26405;51.850;-2.246;2023-02-28T04:49:25;9.38;;;3.95;;
40717;SDS011;26405;51.850;-2.246;2023-02-28T04:51:51;6.45;;;3.70;;
40717;SDS011;26405;51.850;-2.246;2023-02-28T04:54:17;8.05;;;3.75;;
40717;SDS011;26405;51.850;-2.246;2023-02-28T04:56:43;7.20;;;3.53;;
40717;SDS011;26405;51.850;-2.246;2023-02-28T04:59:08;6.63;;;3.35;;
40717;SDS011;26405;51.850;-2.246;2023-02-28T05:01:33;5.90;;;3.30;;
40717;SDS011;26405;51.850;-2.246;2023-02-28T05:04:00;8.45;;;3.75;;
40717;SDS011;26405;51.850;-2.246;2023-02-28T05:06:27;9.40;;;3.97;;
40717;SDS011;26405;51.850;-2.246;2023-02-28T05:08:52;6.55;;;3.60;;
40717;SDS011;26405;51.850;-2.246;2023-02-28T05:11:23;5.47;;;3.60;;
40717;SDS011;26405;51.850;-2.246;2023-02-28T05:13:49;6.65;;;3.60;;
40717;SDS011;26405;51.850;-2.246;2023-02-28T05:16:14;5.60;;;3.45;;
40717;SDS011;26405;51.850;-2.246;2023-02-28T05:18:40;5.45;;;3.28;;
40717;SDS011;26405;51.850;-2.246;2023-02-28T05:21:05;7.63;;;3.50;;
40717;SDS011;26405;51.850;-2.246;2023-02-28T05:23:30;8.75;;;3.53;;
40717;SDS011;26405;51.850;-2.246;2023-02-28T05:25:56;6.95;;;3.38;;
40717;SDS011;26405;51.850;-2.246;2023-02-28T05:28:21;6.68;;;3.67;;
40717;SDS011;26405;51.850;-2.246;2023-02-28T05:30:47;9.13;;;4.00;;
40717;SDS011;26405;51.850;-2.246;2023-02-28T05:33:12;7.60;;;3.80;;
40717;SDS011;26405;51.850;-2.246;2023-02-28T05:35:38;7.53;;;3.80;;
40717;SDS011;26405;51.850;-2.246;2023-02-28T05:38:04;8.32;;;3.80;;
40717;SDS011;26405;51.850;-2.246;2023-02-28T05:40:29;6.00;;;3.78;;
40717;SDS011;26405;51.850;-2.246;2023-02-28T05:42:54;8.65;;;4.05;;
40717;SDS011;26405;51.850;-2.246;2023-02-28T05:45:20;7.40;;;3.70;;
40717;SDS011;26405;51.850;-2.246;2023-02-28T05:47:45;8.73;;;4.03;;
40717;SDS011;26405;51.850;-2.246;2023-02-28T05:50:10;7.15;;;4.00;;
40717;SDS011;26405;51.850;-2.246;2023-02-28T05:52:36;7.75;;;4.20;;
40717;SDS011;26405;51.850;-2.246;2023-02-28T05:55:01;8.13;;;4.10;;
40717;SDS011;26405;51.850;-2.246;2023-02-28T05:57:26;7.38;;;4.10;;
40717;SDS011;26405;51.850;-2.246;2023-02-28T05:59:51;6.72;;;3.80;;
40717;SDS011;26405;51.850;-2.246;2023-02-28T06:02:17;8.27;;;4.10;;
40717;SDS011;26405;51.850;-2.246;2023-02-28T06:04:42;11.10;;;4.38;;
40717;SDS011;26405;51.850;-2.246;2023-02-28T06:07:08;7.38;;;3.60;;
40717;SDS011;26405;51.850;-2.246;2023-02-28T06:09:34;7.53;;;3.80;;
40717;SDS011;26405;51.850;-2.246;2023-02-28T06:12:00;6.10;;;3.60;;
40717;SDS011;26405;51.850;-2.246;2023-02-28T06:14:25;6.03;;;3.70;;
40717;SDS011;26405;51.850;-2.246;2023-02-28T06:16:51;5.75;;;3.58;;
40717;SDS011;26405;51.850;-2.246;2023-02-28T06:19:16;6.47;;;3.47;;
40717;SDS011;26405;51.850;-2.246;2023-02-28T06:21:41;6.63;;;3.50;;
40717;SDS011;26405;51.850;-2.246;2023-02-28T06:24:07;6.03;;;3.50;;
40717;SDS011;26405;51.850;-2.246;2023-02-28T06:26:32;5.90;;;3.55;;
40717;SDS011;26405;51.850;-2.246;2023-02-28T06:28:58;4.97;;;3.28;;
40717;SDS011;26405;51.850;-2.246;2023-02-28T06:31:23;6.25;;;3.63;;
40717;SDS011;26405;51.850;-2.246;2023-02-28T06:33:50;5.03;;;3.63;;
40717;SDS011;26405;51.850;-2.246;2023-02-28T06:36:16;5.10;;;3.60;;
40717;SDS011;26405;51.850;-2.246;2023-02-28T06:38:42;6.95;;;3.70;;
40717;SDS011;26405;51.850;-2.246;2023-02-28T06:41:08;6.75;;;3.50;;
40717;SDS011;26405;51.850;-2.246;2023-02-28T06:43:36;5.68;;;3.55;;
40717;SDS011;26405;51.850;-2.246;2023-02-28T06:46:02;6.60;;;3.92;;
40717;SDS011;26405;51.850;-2.246;2023-02-28T06:48:29;6.10;;;3.78;;
40717;SDS011;26405;51.850;-2.246;2023-02-28T06:51:08;9.38;;;4.00;;
40717;SDS011;26405;51.850;-2.246;2023-02-28T06:53:33;6.97;;;4.30;;
40717;SDS011;26405;51.850;-2.246;2023-02-28T06:55:59;6.78;;;3.97;;
40717;SDS011;26405;51.850;-2.246;2023-02-28T06:58:24;6.45;;;3.97;;
40717;SDS011;26405;51.850;-2.246;2023-02-28T07:00:52;9.13;;;4.55;;
40717;SDS011;26405;51.850;-2.246;2023-02-28T07:03:18;9.93;;;5.07;;
40717;SDS011;26405;51.850;-2.246;2023-02-28T07:05:44;10.48;;;5.28;;
40717;SDS011;26405;51.850;-2.246;2023-02-28T07:08:09;9.52;;;4.90;;
40717;SDS011;26405;51.850;-2.246;2023-02-28T07:10:36;8.30;;;5.00;;
40717;SDS011;26405;51.850;-2.246;2023-02-28T07:13:02;9.77;;;4.82;;
40717;SDS011;26405;51.850;-2.246;2023-02-28T07:15:28;10.60;;;5.68;;
40717;SDS011;26405;51.850;-2.246;2023-02-28T07:17:53;12.80;;;5.70;;
40717;SDS011;26405;51.850;-2.246;2023-02-28T07:20:19;11.45;;;5.38;;
40717;SDS011;26405;51.850;-2.246;2023-02-28T07:22:44;12.45;;;6.18;;
40717;SDS011;26405;51.850;-2.246;2023-02-28T07:25:09;14.60;;;6.57;;
40717;SDS011;26405;51.850;-2.246;2023-02-28T07:27:35;11.75;;;6.25;;
40717;SDS011;26405;51.850;-2.246;2023-02-28T07:30:00;15.02;;;7.13;;
40717;SDS011;26405;51.850;-2.246;2023-02-28T07:32:27;13.20;;;6.97;;
40717;SDS011;26405;51.850;-2.246;2023-02-28T07:34:52;13.98;;;6.85;;
40717;SDS011;26405;51.850;-2.246;2023-02-28T07:37:17;15.23;;;7.55;;
40717;SDS011;26405;51.850;-2.246;2023-02-28T07:39:43;15.32;;;7.85;;
40717;SDS011;26405;51.850;-2.246;2023-02-28T07:42:08;17.13;;;8.23;;
40717;SDS011;26405;51.850;-2.246;2023-02-28T07:44:36;16.38;;;8.05;;
40717;SDS011;26405;51.850;-2.246;2023-02-28T07:47:05;17.63;;;8.95;;
40717;SDS011;26405;51.850;-2.246;2023-02-28T07:49:31;16.55;;;8.13;;
40717;SDS011;26405;51.850;-2.246;2023-02-28T07:51:57;18.40;;;8.65;;
40717;SDS011;26405;51.850;-2.246;2023-02-28T07:54:22;17.05;;;8.18;;
40717;SDS011;26405;51.850;-2.246;2023-02-28T07:56:47;16.63;;;8.40;;
40717;SDS011;26405;51.850;-2.246;2023-02-28T07:59:15;15.32;;;8.10;;
40717;SDS011;26405;51.850;-2.246;2023-02-28T08:01:40;17.60;;;8.60;;
40717;SDS011;26405;51.850;-2.246;2023-02-28T08:04:05;16.15;;;8.48;;
40717;SDS011;26405;51.850;-2.246;2023-02-28T08:06:30;18.00;;;9.00;;
40717;SDS011;26405;51.850;-2.246;2023-02-28T08:08:56;15.48;;;8.13;;
40717;SDS011;26405;51.850;-2.246;2023-02-28T08:11:21;19.67;;;8.57;;
40717;SDS011;26405;51.850;-2.246;2023-02-28T08:13:46;15.07;;;7.93;;
40717;SDS011;26405;51.850;-2.246;2023-02-28T08:16:12;15.82;;;8.25;;
40717;SDS011;26405;51.850;-2.246;2023-02-28T08:18:42;17.67;;;8.57;;
40717;SDS011;26405;51.850;-2.246;2023-02-28T08:21:08;16.52;;;8.02;;
40717;SDS011;26405;51.850;-2.246;2023-02-28T08:23:33;15.25;;;8.02;;
40717;SDS011;26405;51.850;-2.246;2023-02-28T08:25:59;15.90;;;8.27;;
40717;SDS011;26405;51.850;-2.246;2023-02-28T08:28:24;15.52;;;7.88;;
40717;SDS011;26405;51.850;-2.246;2023-02-28T08:30:49;16.27;;;7.90;;
40717;SDS011;26405;51.850;-2.246;2023-02-28T08:33:15;17.60;;;8.38;;
40717;SDS011;26405;51.850;-2.246;2023-02-28T08:35:40;18.88;;;7.25;;
40717;SDS011;26405;51.850;-2.246;2023-02-28T08:38:05;16.20;;;8.27;;
40717;SDS011;26405;51.850;-2.246;2023-02-28T08:40:30;17.65;;;8.80;;
40717;SDS011;26405;51.850;-2.246;2023-02-28T08:42:56;15.60;;;7.93;;
40717;SDS011;26405;51.850;-2.246;2023-02-28T08:45:21;16.38;;;8.63;;
40717;SDS011;26405;51.850;-2.246;2023-02-28T08:47:46;17.42;;;8.60;;
40717;SDS011;26405;51.850;-2.246;2023-02-28T08:50:11;17.02;;;8.13;;
40717;SDS011;26405;51.850;-2.246;2023-02-28T08:52:41;16.00;;;7.88;;
40717;SDS011;26405;51.850;-2.246;2023-02-28T08:55:06;16.75;;;7.90;;
40717;SDS011;26405;51.850;-2.246;2023-02-28T08:57:32;16.98;;;8.68;;
40717;SDS011;26405;51.850;-2.246;2023-02-28T08:59:57;18.33;;;8.82;;
40717;SDS011;26405;51.850;-2.246;2023-02-28T09:02:23;14.32;;;8.05;;
40717;SDS011;26405;51.850;-2.246;2023-02-28T09:04:48;16.38;;;8.02;;
40717;SDS011;26405;51.850;-2.246;2023-02-28T09:07:13;18.42;;;8.68;;
40717;SDS011;26405;51.850;-2.246;2023-02-28T09:09:39;15.70;;;8.45;;
40717;SDS011;26405;51.850;-2.246;2023-02-28T09:12:18;15.73;;;7.72;;
40717;SDS011;26405;51.850;-2.246;2023-02-28T09:14:44;18.48;;;8.52;;
40717;SDS011;26405;51.850;-2.246;2023-02-28T09:17:09;15.63;;;8.10;;
40717;SDS011;26405;51.850;-2.246;2023-02-28T09:19:34;17.48;;;8.05;;
40717;SDS011;26405;51.850;-2.246;2023-02-28T09:21:59;16.20;;;8.23;;
40717;SDS011;26405;51.850;-2.246;2023-02-28T09:24:24;16.75;;;8.63;;
40717;SDS011;26405;51.850;-2.246;2023-02-28T09:26:50;17.25;;;8.40;;
40717;SDS011;26405;51.850;-2.246;2023-02-28T09:29:15;17.95;;;9.23;;
40717;SDS011;26405;51.850;-2.246;2023-02-28T09:31:42;16.80;;;8.52;;
40717;SDS011;26405;51.850;-2.246;2023-02-28T09:34:07;18.05;;;9.43;;
40717;SDS011;26405;51.850;-2.246;2023-02-28T09:36:32;17.05;;;8.73;;
40717;SDS011;26405;51.850;-2.246;2023-02-28T09:38:58;15.98;;;8.48;;
40717;SDS011;26405;51.850;-2.246;2023-02-28T09:41:26;16.63;;;8.70;;
40717;SDS011;26405;51.850;-2.246;2023-02-28T09:43:57;17.63;;;9.30;;
40717;SDS011;26405;51.850;-2.246;2023-02-28T09:46:33;17.10;;;8.60;;
40717;SDS011;26405;51.850;-2.246;2023-02-28T09:49:16;18.58;;;9.65;;
40717;SDS011;26405;51.850;-2.246;2023-02-28T09:54:16;16.98;;;8.95;;
40717;SDS011;26405;51.850;-2.246;2023-02-28T09:56:45;17.42;;;9.38;;
40717;SDS011;26405;51.850;-2.246;2023-02-28T10:01:48;14.88;;;8.15;;
40717;SDS011;26405;51.850;-2.246;2023-02-28T10:06:52;14.32;;;7.40;;
40717;SDS011;26405;51.850;-2.246;2023-02-28T10:09:19;14.85;;;7.22;;
40717;SDS011;26405;51.850;-2.246;2023-02-28T10:11:47;11.82;;;6.68;;
40717;SDS011;26405;51.850;-2.246;2023-02-28T10:14:17;12.93;;;7.10;;
40717;SDS011;26405;51.850;-2.246;2023-02-28T10:16:45;13.00;;;6.95;;
40717;SDS011;26405;51.850;-2.246;2023-02-28T10:21:46;13.10;;;6.30;;
40717;SDS011;26405;51.850;-2.246;2023-02-28T10:27:01;11.77;;;5.85;;
40717;SDS011;26405;51.850;-2.246;2023-02-28T10:29:27;11.00;;;5.60;;
40717;SDS011;26405;51.850;-2.246;2023-02-28T10:31:56;13.40;;;6.40;;
40717;SDS011;26405;51.850;-2.246;2023-02-28T10:34:22;10.88;;;6.03;;
40717;SDS011;26405;51.850;-2.246;2023-02-28T10:36:47;10.83;;;5.90;;
40717;SDS011;26405;51.850;-2.246;2023-02-28T10:41:58;9.05;;;5.22;;
40717;SDS011;26405;51.850;-2.246;2023-02-28T10:44:23;9.25;;;5.40;;
40717;SDS011;26405;51.850;-2.246;2023-02-28T10:46:49;9.80;;;5.57;;
40717;SDS011;26405;51.850;-2.246;2023-02-28T10:49:22;9.02;;;5.35;;
40717;SDS011;26405;51.850;-2.246;2023-02-28T10:51:49;9.73;;;4.65;;
40717;SDS011;26405;51.850;-2.246;2023-02-28T10:54:16;9.73;;;5.30;;
40717;SDS011;26405;51.850;-2.246;2023-02-28T10:56:42;8.93;;;5.10;;
40717;SDS011;26405;51.850;-2.246;2023-02-28T11:04:16;10.82;;;5.30;;
40717;SDS011;26405;51.850;-2.246;2023-02-28T11:06:42;7.70;;;4.63;;
40717;SDS011;26405;51.850;-2.246;2023-02-28T11:09:19;10.30;;;5.20;;
40717;SDS011;26405;51.850;-2.246;2023-02-28T11:11:46;7.85;;;4.20;;
40717;SDS011;26405;51.850;-2.246;2023-02-28T11:14:31;7.13;;;4.30;;
40717;SDS011;26405;51.850;-2.246;2023-02-28T11:17:00;8.35;;;4.60;;
40717;SDS011;26405;51.850;-2.246;2023-02-28T11:19:39;6.80;;;4.32;;
40717;SDS011;26405;51.850;-2.246;2023-02-28T11:22:06;7.35;;;4.70;;
40717;SDS011;26405;51.850;-2.246;2023-02-28T11:24:33;8.00;;;4.47;;
40717;SDS011;26405;51.850;-2.246;2023-02-28T11:27:00;6.68;;;4.22;;
40717;SDS011;26405;51.850;-2.246;2023-02-28T11:34:35;7.28;;;4.43;;
40717;SDS011;26405;51.850;-2.246;2023-02-28T11:37:01;9.33;;;4.63;;
40717;SDS011;26405;51.850;-2.246;2023-02-28T11:39:30;6.88;;;4.03;;
40717;SDS011;26405;51.850;-2.246;2023-02-28T11:47:19;10.02;;;4.57;;
40717;SDS011;26405;51.850;-2.246;2023-02-28T12:00:07;6.88;;;4.22;;
40717;SDS011;26405;51.850;-2.246;2023-02-28T12:02:49;8.23;;;4.60;;
40717;SDS011;26405;51.850;-2.246;2023-02-28T12:08:00;7.75;;;4.00;;
40717;SDS011;26405;51.850;-2.246;2023-02-28T12:10:29;7.78;;;3.88;;
40717;SDS011;26405;51.850;-2.246;2023-02-28T12:20:25;8.80;;;4.45;;
40717;SDS011;26405;51.850;-2.246;2023-02-28T12:28:07;7.28;;;3.92;;
40717;SDS011;26405;51.850;-2.246;2023-02-28T12:30:35;5.63;;;3.85;;
40717;SDS011;26405;51.850;-2.246;2023-02-28T12:33:03;8.18;;;3.50;;
40717;SDS011;26405;51.850;-2.246;2023-02-28T12:35:33;6.95;;;4.03;;
40717;SDS011;26405;51.850;-2.246;2023-02-28T12:38:10;7.55;;;4.15;;
40717;SDS011;26405;51.850;-2.246;2023-02-28T12:40:42;6.90;;;4.10;;
40717;SDS011;26405;51.850;-2.246;2023-02-28T12:43:09;8.93;;;4.63;;
40717;SDS011;26405;51.850;-2.246;2023-02-28T12:45:40;7.65;;;4.22;;
40717;SDS011;26405;51.850;-2.246;2023-02-28T12:48:06;7.20;;;3.97;;
40717;SDS011;26405;51.850;-2.246;2023-02-28T12:50:33;7.30;;;3.53;;
40717;SDS011;26405;51.850;-2.246;2023-02-28T12:55:50;7.55;;;3.63;;
40717;SDS011;26405;51.850;-2.246;2023-02-28T12:58:22;7.38;;;3.88;;
40717;SDS011;26405;51.850;-2.246;2023-02-28T13:08:39;5.65;;;3.00;;
40717;SDS011;26405;51.850;-2.246;2023-02-28T13:11:06;3.65;;;2.90;;
40717;SDS011;26405;51.850;-2.246;2023-02-28T13:13:32;5.45;;;3.00;;
40717;SDS011;26405;51.850;-2.246;2023-02-28T13:18:39;5.32;;;2.90;;
40717;SDS011;26405;51.850;-2.246;2023-02-28T13:21:06;4.88;;;3.05;;
40717;SDS011;26405;51.850;-2.246;2023-02-28T13:23:56;5.13;;;3.22;;
40717;SDS011;26405;51.850;-2.246;2023-02-28T13:27:10;6.10;;;3.38;;
40717;SDS011;26405;51.850;-2.246;2023-02-28T13:34:24;3.50;;;2.75;;
40717;SDS011;26405;51.850;-2.246;2023-02-28T13:36:50;6.35;;;2.53;;
40717;SDS011;26405;51.850;-2.246;2023-02-28T13:47:27;4.15;;;2.00;;
40717;SDS011;26405;51.850;-2.246;2023-02-28T13:49:53;3.22;;;2.10;;
40717;SDS011;26405;51.850;-2.246;2023-02-28T13:52:20;3.58;;;2.28;;
40717;SDS011;26405;51.850;-2.246;2023-02-28T14:04:50;4.80;;;2.47;;
40717;SDS011;26405;51.850;-2.246;2023-02-28T14:07:20;3.08;;;2.40;;
40717;SDS011;26405;51.850;-2.246;2023-02-28T14:09:49;3.88;;;2.63;;
40717;SDS011;26405;51.850;-2.246;2023-02-28T14:15:00;3.83;;;2.72;;
40717;SDS011;26405;51.850;-2.246;2023-02-28T14:17:26;4.93;;;2.75;;
40717;SDS011;26405;51.850;-2.246;2023-02-28T14:19:51;3.97;;;2.47;;
40717;SDS011;26405;51.850;-2.246;2023-02-28T14:27:34;5.32;;;2.42;;
40717;SDS011;26405;51.850;-2.246;2023-02-28T14:37:45;3.03;;;2.27;;
40717;SDS011;26405;51.850;-2.246;2023-02-28T14:40:12;5.72;;;2.20;;
40717;SDS011;26405;51.850;-2.246;2023-02-28T14:42:39;4.15;;;2.25;;
40717;SDS011;26405;51.850;-2.246;2023-02-28T14:45:21;6.65;;;2.45;;
40717;SDS011;26405;51.850;-2.246;2023-02-28T14:47:47;4.90;;;2.67;;
40717;SDS011;26405;51.850;-2.246;2023-02-28T14:53:14;6.10;;;2.90;;
40717;SDS011;26405;51.850;-2.246;2023-02-28T14:55:43;2.50;;;2.20;;
40717;SDS011;26405;51.850;-2.246;2023-02-28T14:58:18;2.88;;;2.10;;
40717;SDS011;26405;51.850;-2.246;2023-02-28T15:00:48;3.55;;;2.22;;
40717;SDS011;26405;51.850;-2.246;2023-02-28T15:03:32;8.55;;;2.60;;
40717;SDS011;26405;51.850;-2.246;2023-02-28T15:05:59;4.15;;;2.30;;
40717;SDS011;26405;51.850;-2.246;2023-02-28T15:08:24;3.85;;;2.10;;
40717;SDS011;26405;51.850;-2.246;2023-02-28T15:13:19;3.53;;;2.20;;
40717;SDS011;26405;51.850;-2.246;2023-02-28T15:20:50;4.75;;;2.15;;
40717;SDS011;26405;51.850;-2.246;2023-02-28T15:23:16;3.35;;;2.30;;
40717;SDS011;26405;51.850;-2.246;2023-02-28T15:25:41;3.05;;;2.08;;
40717;SDS011;26405;51.850;-2.246;2023-02-28T15:28:10;6.80;;;2.20;;
40717;SDS011;26405;51.850;-2.246;2023-02-28T15:30:37;5.82;;;2.20;;
40717;SDS011;26405;51.850;-2.246;2023-02-28T15:35:43;3.90;;;2.10;;
40717;SDS011;26405;51.850;-2.246;2023-02-28T15:38:16;3.03;;;2.08;;
40717;SDS011;26405;51.850;-2.246;2023-02-28T15:40:43;4.22;;;2.30;;
40717;SDS011;26405;51.850;-2.246;2023-02-28T15:43:13;3.92;;;2.50;;
40717;SDS011;26405;51.850;-2.246;2023-02-28T15:45:46;4.15;;;2.33;;
40717;SDS011;26405;51.850;-2.246;2023-02-28T15:48:31;5.70;;;2.40;;
40717;SDS011;26405;51.850;-2.246;2023-02-28T15:50:58;8.57;;;3.20;;
40717;SDS011;26405;51.850;-2.246;2023-02-28T15:53:28;6.03;;;2.60;;
40717;SDS011;26405;51.850;-2.246;2023-02-28T15:55:56;7.50;;;2.95;;
40717;SDS011;26405;51.850;-2.246;2023-02-28T15:58:23;4.93;;;2.75;;
40717;SDS011;26405;51.850;-2.246;2023-02-28T16:00:59;9.38;;;3.97;;
40717;SDS011;26405;51.850;-2.246;2023-02-28T16:03:26;5.05;;;2.70;;
40717;SDS011;26405;51.850;-2.246;2023-02-28T16:08:35;4.80;;;2.38;;
40717;SDS011;26405;51.850;-2.246;2023-02-28T16:11:00;6.43;;;3.03;;
40717;SDS011;26405;51.850;-2.246;2023-02-28T16:13:26;4.35;;;2.70;;
40717;SDS011;26405;51.850;-2.246;2023-02-28T16:15:51;6.00;;;3.05;;
40717;SDS011;26405;51.850;-2.246;2023-02-28T16:18:16;11.27;;;2.70;;
40717;SDS011;26405;51.850;-2.246;2023-02-28T16:20:41;5.75;;;2.70;;
40717;SDS011;26405;51.850;-2.246;2023-02-28T16:23:09;6.28;;;2.80;;
40717;SDS011;26405;51.850;-2.246;2023-02-28T16:25:35;5.68;;;2.63;;
40717;SDS011;26405;51.850;-2.246;2023-02-28T16:28:01;4.20;;;2.73;;
40717;SDS011;26405;51.850;-2.246;2023-02-28T16:30:27;4.70;;;2.70;;
40717;SDS011;26405;51.850;-2.246;2023-02-28T16:32:54;5.72;;;3.03;;
40717;SDS011;26405;51.850;-2.246;2023-02-28T16:37:45;5.53;;;2.80;;
40717;SDS011;26405;51.850;-2.246;2023-02-28T16:40:14;6.15;;;2.90;;
40717;SDS011;26405;51.850;-2.246;2023-02-28T16:42:40;4.97;;;2.90;;
40717;SDS011;26405;51.850;-2.246;2023-02-28T16:45:05;5.45;;;2.60;;
40717;SDS011;26405;51.850;-2.246;2023-02-28T16:47:31;5.72;;;2.70;;
40717;SDS011;26405;51.850;-2.246;2023-02-28T16:49:57;5.38;;;2.97;;
40717;SDS011;26405;51.850;-2.246;2023-02-28T16:52:23;5.82;;;2.97;;
40717;SDS011;26405;51.850;-2.246;2023-02-28T16:54:48;4.93;;;2.55;;
40717;SDS011;26405;51.850;-2.246;2023-02-28T16:57:22;9.43;;;3.10;;
40717;SDS011;26405;51.850;-2.246;2023-02-28T16:59:48;6.22;;;2.88;;
40717;SDS011;26405;51.850;-2.246;2023-02-28T17:02:15;6.45;;;2.90;;
40717;SDS011;26405;51.850;-2.246;2023-02-28T17:04:44;7.67;;;2.90;;
40717;SDS011;26405;51.850;-2.246;2023-02-28T17:07:13;5.10;;;2.90;;
40717;SDS011;26405;51.850;-2.246;2023-02-28T17:09:40;6.57;;;2.78;;
40717;SDS011;26405;51.850;-2.246;2023-02-28T17:12:06;4.20;;;2.58;;
40717;SDS011;26405;51.850;-2.246;2023-02-28T17:14:31;5.93;;;3.00;;
40717;SDS011;26405;51.850;-2.246;2023-02-28T17:16:57;8.82;;;3.33;;
40717;SDS011;26405;51.850;-2.246;2023-02-28T17:19:22;5.82;;;2.80;;